sensor_id;sensor_type;location;lat;lon;timestamp;P1;durP1;ratioP1;P2;durP2;ratioP2
70322;SDS011;57735;56.264;43.898;2024-03-07T00:00:50;6.85;;;2.08;;
70322;SDS011;57735;56.264;43.898;2024-03-07T00:03:24;7.50;;;2.30;;
70322;SDS011;57735;56.264;43.898;2024-03-07T00:05:55;11.52;;;2.92;;
70322;SDS011;57735;56.264;43.898;2024-03-07T00:08:25;10.82;;;3.38;;
70322;SDS011;57735;56.264;43.898;2024-03-07T00:10:57;20.67;;;2.90;;
70322;SDS011;57735;56.264;43.898;2024-03-07T00:13:27;12.30;;;2.05;;
70322;SDS011;57735;56.264;43.898;2024-03-07T00:15:58;6.38;;;2.40;;
70322;SDS011;57735;56.264;43.898;2024-03-07T00:18:29;6.30;;;1.83;;
70322;SDS011;57735;56.264;43.898;2024-03-07T00:21:00;4.57;;;2.05;;
70322;SDS011;57735;56.264;43.898;2024-03-07T00:23:31;11.40;;;2.25;;
70322;SDS011;57735;56.264;43.898;2024-03-07T00:26:05;6.37;;;2.17;;
70322;SDS011;57735;56.264;43.898;2024-03-07T00:28:36;7.30;;;2.38;;
70322;SDS011;57735;56.264;43.898;2024-03-07T00:31:09;5.95;;;2.00;;
70322;SDS011;57735;56.264;43.898;2024-03-07T00:33:41;6.28;;;2.33;;
70322;SDS011;57735;56.264;43.898;2024-03-07T00:36:14;4.80;;;2.28;;
70322;SDS011;57735;56.264;43.898;2024-03-07T00:38:47;6.10;;;2.22;;
70322;SDS011;57735;56.264;43.898;2024-03-07T00:41:18;5.28;;;2.05;;
70322;SDS011;57735;56.264;43.898;2024-03-07T00:43:49;3.85;;;2.10;;
70322;SDS011;57735;56.264;43.898;2024-03-07T00:46:20;3.75;;;1.90;;
70322;SDS011;57735;56.264;43.898;2024-03-07T00:49:00;7.95;;;2.00;;
70322;SDS011;57735;56.264;43.898;2024-03-07T00:51:31;8.48;;;2.38;;
70322;SDS011;57735;56.264;43.898;2024-03-07T00:54:02;7.35;;;2.38;;
70322;SDS011;57735;56.264;43.898;2024-03-07T00:56:33;6.50;;;2.55;;
70322;SDS011;57735;56.264;43.898;2024-03-07T00:59:03;7.22;;;1.98;;
70322;SDS011;57735;56.264;43.898;2024-03-07T01:01:34;9.27;;;2.60;;
70322;SDS011;57735;56.264;43.898;2024-03-07T01:04:06;7.38;;;2.22;;
70322;SDS011;57735;56.264;43.898;2024-03-07T01:06:37;6.55;;;2.10;;
70322;SDS011;57735;56.264;43.898;2024-03-07T01:09:09;4.40;;;2.22;;
70322;SDS011;57735;56.264;43.898;2024-03-07T01:11:49;7.20;;;3.00;;
70322;SDS011;57735;56.264;43.898;2024-03-07T01:14:21;8.00;;;2.90;;
70322;SDS011;57735;56.264;43.898;2024-03-07T01:16:53;6.03;;;2.75;;
70322;SDS011;57735;56.264;43.898;2024-03-07T01:19:24;10.77;;;2.92;;
70322;SDS011;57735;56.264;43.898;2024-03-07T01:21:54;11.32;;;2.65;;
70322;SDS011;57735;56.264;43.898;2024-03-07T01:24:25;5.32;;;2.42;;
70322;SDS011;57735;56.264;43.898;2024-03-07T01:26:59;7.47;;;2.92;;
70322;SDS011;57735;56.264;43.898;2024-03-07T01:29:33;8.98;;;2.40;;
70322;SDS011;57735;56.264;43.898;2024-03-07T01:32:04;9.18;;;2.63;;
70322;SDS011;57735;56.264;43.898;2024-03-07T01:34:35;4.80;;;2.10;;
70322;SDS011;57735;56.264;43.898;2024-03-07T01:37:06;8.32;;;1.90;;
70322;SDS011;57735;56.264;43.898;2024-03-07T01:39:38;8.15;;;2.85;;
70322;SDS011;57735;56.264;43.898;2024-03-07T01:42:09;11.95;;;3.28;;
70322;SDS011;57735;56.264;43.898;2024-03-07T01:44:40;10.00;;;3.20;;
70322;SDS011;57735;56.264;43.898;2024-03-07T01:47:11;9.57;;;3.13;;
70322;SDS011;57735;56.264;43.898;2024-03-07T01:49:43;5.78;;;3.20;;
70322;SDS011;57735;56.264;43.898;2024-03-07T01:52:14;8.55;;;3.42;;
70322;SDS011;57735;56.264;43.898;2024-03-07T01:54:46;9.00;;;3.58;;
70322;SDS011;57735;56.264;43.898;2024-03-07T01:57:17;15.10;;;3.38;;
70322;SDS011;57735;56.264;43.898;2024-03-07T01:59:49;10.18;;;3.58;;
70322;SDS011;57735;56.264;43.898;2024-03-07T02:02:21;8.95;;;2.70;;
70322;SDS011;57735;56.264;43.898;2024-03-07T02:04:51;8.40;;;3.70;;
70322;SDS011;57735;56.264;43.898;2024-03-07T02:07:22;6.45;;;2.67;;
70322;SDS011;57735;56.264;43.898;2024-03-07T02:09:59;20.13;;;3.38;;
70322;SDS011;57735;56.264;43.898;2024-03-07T02:12:31;7.60;;;2.58;;
70322;SDS011;57735;56.264;43.898;2024-03-07T02:15:03;6.88;;;3.10;;
70322;SDS011;57735;56.264;43.898;2024-03-07T02:17:36;4.95;;;1.85;;
70322;SDS011;57735;56.264;43.898;2024-03-07T02:20:08;14.88;;;2.78;;
70322;SDS011;57735;56.264;43.898;2024-03-07T02:22:43;15.82;;;2.70;;
70322;SDS011;57735;56.264;43.898;2024-03-07T02:25:14;11.48;;;2.42;;
70322;SDS011;57735;56.264;43.898;2024-03-07T02:27:46;8.77;;;2.88;;
70322;SDS011;57735;56.264;43.898;2024-03-07T02:30:17;9.93;;;2.45;;
70322;SDS011;57735;56.264;43.898;2024-03-07T02:32:49;5.25;;;2.60;;
70322;SDS011;57735;56.264;43.898;2024-03-07T02:35:22;5.57;;;2.33;;
70322;SDS011;57735;56.264;43.898;2024-03-07T02:37:53;10.68;;;2.85;;
70322;SDS011;57735;56.264;43.898;2024-03-07T02:40:24;7.95;;;2.53;;
70322;SDS011;57735;56.264;43.898;2024-03-07T02:42:55;9.32;;;2.67;;
70322;SDS011;57735;56.264;43.898;2024-03-07T02:45:26;14.18;;;3.40;;
70322;SDS011;57735;56.264;43.898;2024-03-07T02:48:02;8.77;;;3.00;;
70322;SDS011;57735;56.264;43.898;2024-03-07T02:50:35;12.52;;;2.35;;
70322;SDS011;57735;56.264;43.898;2024-03-07T02:53:11;5.25;;;2.42;;
70322;SDS011;57735;56.264;43.898;2024-03-07T02:55:42;5.20;;;2.38;;
70322;SDS011;57735;56.264;43.898;2024-03-07T02:58:13;6.70;;;2.35;;
70322;SDS011;57735;56.264;43.898;2024-03-07T03:00:44;8.02;;;2.33;;
70322;SDS011;57735;56.264;43.898;2024-03-07T03:03:15;7.55;;;2.35;;
70322;SDS011;57735;56.264;43.898;2024-03-07T03:05:48;14.90;;;2.55;;
70322;SDS011;57735;56.264;43.898;2024-03-07T03:08:19;7.05;;;1.90;;
70322;SDS011;57735;56.264;43.898;2024-03-07T03:10:50;6.43;;;2.58;;
70322;SDS011;57735;56.264;43.898;2024-03-07T03:13:22;7.18;;;2.45;;
70322;SDS011;57735;56.264;43.898;2024-03-07T03:15:59;10.88;;;3.20;;
70322;SDS011;57735;56.264;43.898;2024-03-07T03:18:30;7.22;;;2.30;;
70322;SDS011;57735;56.264;43.898;2024-03-07T03:21:01;11.15;;;2.47;;
70322;SDS011;57735;56.264;43.898;2024-03-07T03:23:33;20.95;;;3.20;;
70322;SDS011;57735;56.264;43.898;2024-03-07T03:26:04;8.48;;;3.03;;
70322;SDS011;57735;56.264;43.898;2024-03-07T03:28:37;9.80;;;2.60;;
70322;SDS011;57735;56.264;43.898;2024-03-07T03:31:09;14.02;;;2.92;;
70322;SDS011;57735;56.264;43.898;2024-03-07T03:33:44;27.05;;;3.60;;
70322;SDS011;57735;56.264;43.898;2024-03-07T03:36:15;14.10;;;2.95;;
70322;SDS011;57735;56.264;43.898;2024-03-07T03:38:46;12.88;;;3.40;;
70322;SDS011;57735;56.264;43.898;2024-03-07T03:41:17;17.92;;;3.47;;
70322;SDS011;57735;56.264;43.898;2024-03-07T03:43:47;8.68;;;3.13;;
70322;SDS011;57735;56.264;43.898;2024-03-07T03:46:18;10.27;;;2.67;;
70322;SDS011;57735;56.264;43.898;2024-03-07T03:48:49;6.72;;;2.80;;
70322;SDS011;57735;56.264;43.898;2024-03-07T03:51:23;7.93;;;2.75;;
70322;SDS011;57735;56.264;43.898;2024-03-07T03:53:55;27.23;;;2.92;;
70322;SDS011;57735;56.264;43.898;2024-03-07T03:56:26;13.93;;;2.92;;
70322;SDS011;57735;56.264;43.898;2024-03-07T03:58:57;14.73;;;3.88;;
70322;SDS011;57735;56.264;43.898;2024-03-07T04:01:28;13.02;;;2.90;;
70322;SDS011;57735;56.264;43.898;2024-03-07T04:03:58;31.00;;;3.50;;
70322;SDS011;57735;56.264;43.898;2024-03-07T04:06:32;13.15;;;3.13;;
70322;SDS011;57735;56.264;43.898;2024-03-07T04:09:03;19.27;;;2.78;;
70322;SDS011;57735;56.264;43.898;2024-03-07T04:11:35;12.13;;;3.55;;
70322;SDS011;57735;56.264;43.898;2024-03-07T04:14:07;20.65;;;2.92;;
70322;SDS011;57735;56.264;43.898;2024-03-07T04:16:41;19.77;;;4.15;;
70322;SDS011;57735;56.264;43.898;2024-03-07T04:19:11;31.85;;;4.78;;
70322;SDS011;57735;56.264;43.898;2024-03-07T04:21:42;8.85;;;3.05;;
70322;SDS011;57735;56.264;43.898;2024-03-07T04:24:14;12.13;;;4.43;;
70322;SDS011;57735;56.264;43.898;2024-03-07T04:26:45;10.23;;;4.00;;
70322;SDS011;57735;56.264;43.898;2024-03-07T04:29:16;24.92;;;3.75;;
70322;SDS011;57735;56.264;43.898;2024-03-07T04:31:47;20.85;;;4.18;;
70322;SDS011;57735;56.264;43.898;2024-03-07T04:34:18;19.02;;;4.47;;
70322;SDS011;57735;56.264;43.898;2024-03-07T04:36:49;20.95;;;3.80;;
70322;SDS011;57735;56.264;43.898;2024-03-07T04:39:20;22.10;;;5.20;;
70322;SDS011;57735;56.264;43.898;2024-03-07T04:42:03;18.27;;;3.53;;
70322;SDS011;57735;56.264;43.898;2024-03-07T04:44:38;20.58;;;4.30;;
70322;SDS011;57735;56.264;43.898;2024-03-07T04:47:09;18.20;;;3.97;;
70322;SDS011;57735;56.264;43.898;2024-03-07T04:49:40;18.65;;;4.47;;
70322;SDS011;57735;56.264;43.898;2024-03-07T04:52:13;16.10;;;4.03;;
70322;SDS011;57735;56.264;43.898;2024-03-07T04:54:44;16.88;;;4.72;;
70322;SDS011;57735;56.264;43.898;2024-03-07T04:57:15;24.90;;;5.10;;
70322;SDS011;57735;56.264;43.898;2024-03-07T04:59:46;28.08;;;6.05;;
70322;SDS011;57735;56.264;43.898;2024-03-07T05:02:16;29.67;;;9.02;;
70322;SDS011;57735;56.264;43.898;2024-03-07T05:04:47;72.05;;;19.17;;
70322;SDS011;57735;56.264;43.898;2024-03-07T05:07:20;71.50;;;20.67;;
70322;SDS011;57735;56.264;43.898;2024-03-07T05:09:54;72.43;;;20.93;;
70322;SDS011;57735;56.264;43.898;2024-03-07T05:12:24;71.97;;;22.60;;
70322;SDS011;57735;56.264;43.898;2024-03-07T05:14:55;48.90;;;15.10;;
70322;SDS011;57735;56.264;43.898;2024-03-07T05:17:26;26.60;;;6.45;;
70322;SDS011;57735;56.264;43.898;2024-03-07T05:19:59;24.25;;;4.97;;
70322;SDS011;57735;56.264;43.898;2024-03-07T05:22:30;22.20;;;5.55;;
70322;SDS011;57735;56.264;43.898;2024-03-07T05:25:00;25.98;;;5.10;;
70322;SDS011;57735;56.264;43.898;2024-03-07T05:27:33;18.15;;;5.50;;
70322;SDS011;57735;56.264;43.898;2024-03-07T05:30:06;18.00;;;5.35;;
70322;SDS011;57735;56.264;43.898;2024-03-07T05:32:39;9.38;;;4.28;;
70322;SDS011;57735;56.264;43.898;2024-03-07T05:35:10;13.48;;;4.90;;
70322;SDS011;57735;56.264;43.898;2024-03-07T05:37:41;16.30;;;3.75;;
70322;SDS011;57735;56.264;43.898;2024-03-07T05:40:17;12.27;;;3.55;;
70322;SDS011;57735;56.264;43.898;2024-03-07T05:42:48;17.00;;;4.03;;
70322;SDS011;57735;56.264;43.898;2024-03-07T05:45:19;19.85;;;3.65;;
70322;SDS011;57735;56.264;43.898;2024-03-07T05:47:53;23.02;;;3.65;;
70322;SDS011;57735;56.264;43.898;2024-03-07T05:50:27;21.60;;;3.75;;
70322;SDS011;57735;56.264;43.898;2024-03-07T05:52:58;16.95;;;3.60;;
70322;SDS011;57735;56.264;43.898;2024-03-07T05:55:29;29.13;;;7.18;;
70322;SDS011;57735;56.264;43.898;2024-03-07T05:58:00;23.75;;;5.45;;
70322;SDS011;57735;56.264;43.898;2024-03-07T06:00:34;24.55;;;4.25;;
70322;SDS011;57735;56.264;43.898;2024-03-07T06:03:05;17.63;;;4.72;;
70322;SDS011;57735;56.264;43.898;2024-03-07T06:05:36;19.92;;;5.50;;
70322;SDS011;57735;56.264;43.898;2024-03-07T06:08:07;13.25;;;4.05;;
70322;SDS011;57735;56.264;43.898;2024-03-07T06:10:40;18.77;;;4.88;;
70322;SDS011;57735;56.264;43.898;2024-03-07T06:13:14;22.10;;;5.35;;
70322;SDS011;57735;56.264;43.898;2024-03-07T06:15:46;31.40;;;6.10;;
70322;SDS011;57735;56.264;43.898;2024-03-07T06:18:20;35.63;;;8.18;;
70322;SDS011;57735;56.264;43.898;2024-03-07T06:20:51;31.95;;;7.05;;
70322;SDS011;57735;56.264;43.898;2024-03-07T06:23:21;19.73;;;5.43;;
70322;SDS011;57735;56.264;43.898;2024-03-07T06:25:52;20.55;;;4.95;;
70322;SDS011;57735;56.264;43.898;2024-03-07T06:28:24;20.85;;;3.85;;
70322;SDS011;57735;56.264;43.898;2024-03-07T06:30:55;11.55;;;3.97;;
70322;SDS011;57735;56.264;43.898;2024-03-07T06:33:26;21.08;;;3.97;;
70322;SDS011;57735;56.264;43.898;2024-03-07T06:35:59;20.33;;;3.83;;
70322;SDS011;57735;56.264;43.898;2024-03-07T06:38:31;16.65;;;3.83;;
70322;SDS011;57735;56.264;43.898;2024-03-07T06:41:02;15.25;;;5.05;;
70322;SDS011;57735;56.264;43.898;2024-03-07T06:43:33;23.73;;;5.15;;
70322;SDS011;57735;56.264;43.898;2024-03-07T06:46:04;17.92;;;4.38;;
70322;SDS011;57735;56.264;43.898;2024-03-07T06:48:34;24.73;;;4.53;;
70322;SDS011;57735;56.264;43.898;2024-03-07T06:51:05;26.95;;;7.38;;
70322;SDS011;57735;56.264;43.898;2024-03-07T06:53:36;16.98;;;4.50;;
70322;SDS011;57735;56.264;43.898;2024-03-07T06:56:07;14.85;;;3.85;;
70322;SDS011;57735;56.264;43.898;2024-03-07T06:58:38;27.83;;;4.90;;
70322;SDS011;57735;56.264;43.898;2024-03-07T07:01:10;31.65;;;5.97;;
70322;SDS011;57735;56.264;43.898;2024-03-07T07:03:46;25.67;;;4.82;;
70322;SDS011;57735;56.264;43.898;2024-03-07T07:06:18;23.35;;;4.53;;
70322;SDS011;57735;56.264;43.898;2024-03-07T07:08:51;13.57;;;3.28;;
70322;SDS011;57735;56.264;43.898;2024-03-07T07:11:22;24.48;;;4.22;;
70322;SDS011;57735;56.264;43.898;2024-03-07T07:13:52;16.30;;;4.05;;
70322;SDS011;57735;56.264;43.898;2024-03-07T07:16:23;16.98;;;3.90;;
70322;SDS011;57735;56.264;43.898;2024-03-07T07:18:55;19.17;;;4.90;;
70322;SDS011;57735;56.264;43.898;2024-03-07T07:21:26;19.65;;;3.58;;
70322;SDS011;57735;56.264;43.898;2024-03-07T07:23:57;18.73;;;4.05;;
70322;SDS011;57735;56.264;43.898;2024-03-07T07:26:28;18.20;;;3.72;;
70322;SDS011;57735;56.264;43.898;2024-03-07T07:28:59;19.50;;;4.72;;
70322;SDS011;57735;56.264;43.898;2024-03-07T07:31:30;15.85;;;4.75;;
70322;SDS011;57735;56.264;43.898;2024-03-07T07:34:02;22.42;;;5.85;;
70322;SDS011;57735;56.264;43.898;2024-03-07T07:36:34;11.70;;;3.92;;
70322;SDS011;57735;56.264;43.898;2024-03-07T07:39:06;22.48;;;4.47;;
70322;SDS011;57735;56.264;43.898;2024-03-07T07:41:47;18.38;;;4.47;;
70322;SDS011;57735;56.264;43.898;2024-03-07T07:44:17;23.92;;;6.75;;
70322;SDS011;57735;56.264;43.898;2024-03-07T07:46:49;14.75;;;4.22;;
70322;SDS011;57735;56.264;43.898;2024-03-07T07:49:20;12.65;;;5.18;;
70322;SDS011;57735;56.264;43.898;2024-03-07T07:51:51;17.30;;;3.58;;
70322;SDS011;57735;56.264;43.898;2024-03-07T07:54:23;13.65;;;4.93;;
70322;SDS011;57735;56.264;43.898;2024-03-07T07:56:55;15.60;;;3.75;;
70322;SDS011;57735;56.264;43.898;2024-03-07T07:59:26;15.68;;;4.82;;
70322;SDS011;57735;56.264;43.898;2024-03-07T08:01:56;18.90;;;4.32;;
70322;SDS011;57735;56.264;43.898;2024-03-07T08:04:27;17.25;;;3.92;;
70322;SDS011;57735;56.264;43.898;2024-03-07T08:06:58;13.52;;;4.00;;
70322;SDS011;57735;56.264;43.898;2024-03-07T08:09:29;5.13;;;2.00;;
70322;SDS011;57735;56.264;43.898;2024-03-07T08:12:00;10.77;;;3.20;;
70322;SDS011;57735;56.264;43.898;2024-03-07T08:14:33;14.35;;;4.00;;
70322;SDS011;57735;56.264;43.898;2024-03-07T08:17:05;13.65;;;3.67;;
70322;SDS011;57735;56.264;43.898;2024-03-07T08:19:39;14.38;;;3.38;;
70322;SDS011;57735;56.264;43.898;2024-03-07T08:22:11;10.02;;;2.97;;
70322;SDS011;57735;56.264;43.898;2024-03-07T08:24:42;4.82;;;1.73;;
70322;SDS011;57735;56.264;43.898;2024-03-07T08:27:14;5.45;;;1.45;;
70322;SDS011;57735;56.264;43.898;2024-03-07T08:29:44;6.90;;;1.85;;
70322;SDS011;57735;56.264;43.898;2024-03-07T08:32:15;4.57;;;1.42;;
70322;SDS011;57735;56.264;43.898;2024-03-07T08:34:46;4.65;;;1.63;;
70322;SDS011;57735;56.264;43.898;2024-03-07T08:37:17;5.05;;;1.80;;
70322;SDS011;57735;56.264;43.898;2024-03-07T08:39:48;3.95;;;1.20;;
70322;SDS011;57735;56.264;43.898;2024-03-07T08:42:21;6.10;;;1.50;;
70322;SDS011;57735;56.264;43.898;2024-03-07T08:44:52;11.98;;;1.30;;
70322;SDS011;57735;56.264;43.898;2024-03-07T08:47:26;9.25;;;2.50;;
70322;SDS011;57735;56.264;43.898;2024-03-07T08:49:58;7.00;;;2.50;;
70322;SDS011;57735;56.264;43.898;2024-03-07T08:52:30;3.60;;;1.33;;
70322;SDS011;57735;56.264;43.898;2024-03-07T08:55:02;10.80;;;1.88;;
70322;SDS011;57735;56.264;43.898;2024-03-07T08:57:35;9.02;;;2.13;;
70322;SDS011;57735;56.264;43.898;2024-03-07T09:00:18;8.43;;;1.70;;
70322;SDS011;57735;56.264;43.898;2024-03-07T09:02:58;8.55;;;1.50;;
70322;SDS011;57735;56.264;43.898;2024-03-07T09:05:34;6.72;;;1.52;;
70322;SDS011;57735;56.264;43.898;2024-03-07T09:08:05;5.60;;;2.42;;
70322;SDS011;57735;56.264;43.898;2024-03-07T09:10:37;7.63;;;2.22;;
70322;SDS011;57735;56.264;43.898;2024-03-07T09:13:11;10.90;;;1.60;;
70322;SDS011;57735;56.264;43.898;2024-03-07T09:15:42;4.25;;;1.13;;
70322;SDS011;57735;56.264;43.898;2024-03-07T09:18:13;7.93;;;1.55;;
70322;SDS011;57735;56.264;43.898;2024-03-07T09:20:45;3.00;;;1.58;;
70322;SDS011;57735;56.264;43.898;2024-03-07T09:23:16;5.75;;;1.40;;
70322;SDS011;57735;56.264;43.898;2024-03-07T09:25:47;15.75;;;3.17;;
70322;SDS011;57735;56.264;43.898;2024-03-07T09:28:18;11.82;;;2.13;;
70322;SDS011;57735;56.264;43.898;2024-03-07T09:30:51;4.80;;;2.10;;
70322;SDS011;57735;56.264;43.898;2024-03-07T09:33:23;7.95;;;1.95;;
70322;SDS011;57735;56.264;43.898;2024-03-07T09:35:55;7.13;;;2.10;;
70322;SDS011;57735;56.264;43.898;2024-03-07T09:38:25;5.80;;;1.70;;
70322;SDS011;57735;56.264;43.898;2024-03-07T09:40:58;4.03;;;1.52;;
70322;SDS011;57735;56.264;43.898;2024-03-07T09:43:31;4.47;;;1.70;;
70322;SDS011;57735;56.264;43.898;2024-03-07T09:46:13;6.07;;;1.75;;
70322;SDS011;57735;56.264;43.898;2024-03-07T09:48:49;7.97;;;2.10;;
70322;SDS011;57735;56.264;43.898;2024-03-07T09:53:55;9.02;;;1.77;;
70322;SDS011;57735;56.264;43.898;2024-03-07T09:56:31;6.40;;;1.77;;
70322;SDS011;57735;56.264;43.898;2024-03-07T09:59:05;7.55;;;1.65;;
70322;SDS011;57735;56.264;43.898;2024-03-07T10:01:42;14.70;;;2.28;;
70322;SDS011;57735;56.264;43.898;2024-03-07T10:04:19;10.73;;;3.00;;
70322;SDS011;57735;56.264;43.898;2024-03-07T10:07:02;10.50;;;2.58;;
70322;SDS011;57735;56.264;43.898;2024-03-07T10:09:33;4.28;;;1.52;;
70322;SDS011;57735;56.264;43.898;2024-03-07T10:12:06;3.70;;;1.48;;
70322;SDS011;57735;56.264;43.898;2024-03-07T10:14:49;5.00;;;1.55;;
70322;SDS011;57735;56.264;43.898;2024-03-07T10:17:27;16.50;;;4.20;;
70322;SDS011;57735;56.264;43.898;2024-03-07T10:19:58;4.65;;;1.83;;
70322;SDS011;57735;56.264;43.898;2024-03-07T10:22:31;7.47;;;1.40;;
70322;SDS011;57735;56.264;43.898;2024-03-07T10:25:02;10.95;;;2.33;;
70322;SDS011;57735;56.264;43.898;2024-03-07T10:27:39;4.35;;;1.27;;
70322;SDS011;57735;56.264;43.898;2024-03-07T10:30:12;7.93;;;2.30;;
70322;SDS011;57735;56.264;43.898;2024-03-07T10:32:58;8.32;;;1.60;;
70322;SDS011;57735;56.264;43.898;2024-03-07T10:35:29;5.90;;;1.75;;
70322;SDS011;57735;56.264;43.898;2024-03-07T10:38:01;12.00;;;1.80;;
70322;SDS011;57735;56.264;43.898;2024-03-07T10:40:37;6.93;;;2.42;;
70322;SDS011;57735;56.264;43.898;2024-03-07T10:43:11;2.65;;;1.30;;
70322;SDS011;57735;56.264;43.898;2024-03-07T10:45:46;5.15;;;1.35;;
70322;SDS011;57735;56.264;43.898;2024-03-07T10:48:24;11.00;;;1.40;;
70322;SDS011;57735;56.264;43.898;2024-03-07T10:51:06;10.60;;;1.70;;
70322;SDS011;57735;56.264;43.898;2024-03-07T10:59:25;9.23;;;1.77;;
70322;SDS011;57735;56.264;43.898;2024-03-07T11:04:50;6.20;;;2.03;;
70322;SDS011;57735;56.264;43.898;2024-03-07T11:07:22;5.65;;;1.70;;
70322;SDS011;57735;56.264;43.898;2024-03-07T11:09:54;4.13;;;1.63;;
70322;SDS011;57735;56.264;43.898;2024-03-07T11:12:26;5.93;;;1.55;;
70322;SDS011;57735;56.264;43.898;2024-03-07T11:14:58;4.25;;;1.30;;
70322;SDS011;57735;56.264;43.898;2024-03-07T11:17:30;3.40;;;1.65;;
70322;SDS011;57735;56.264;43.898;2024-03-07T11:20:20;11.00;;;1.30;;
70322;SDS011;57735;56.264;43.898;2024-03-07T11:22:54;5.82;;;1.55;;
70322;SDS011;57735;56.264;43.898;2024-03-07T11:25:26;7.65;;;2.83;;
70322;SDS011;57735;56.264;43.898;2024-03-07T11:27:58;11.20;;;4.90;;
70322;SDS011;57735;56.264;43.898;2024-03-07T11:30:30;3.70;;;1.60;;
70322;SDS011;57735;56.264;43.898;2024-03-07T11:33:01;10.13;;;2.08;;
70322;SDS011;57735;56.264;43.898;2024-03-07T11:35:34;6.70;;;2.50;;
70322;SDS011;57735;56.264;43.898;2024-03-07T11:38:07;5.65;;;1.95;;
70322;SDS011;57735;56.264;43.898;2024-03-07T11:43:11;3.55;;;1.85;;
70322;SDS011;57735;56.264;43.898;2024-03-07T11:48:15;9.00;;;2.15;;
70322;SDS011;57735;56.264;43.898;2024-03-07T11:50:50;8.18;;;1.80;;
70322;SDS011;57735;56.264;43.898;2024-03-07T11:53:21;10.85;;;2.72;;
70322;SDS011;57735;56.264;43.898;2024-03-07T11:55:52;9.93;;;2.33;;
70322;SDS011;57735;56.264;43.898;2024-03-07T11:58:25;8.18;;;1.25;;
70322;SDS011;57735;56.264;43.898;2024-03-07T12:00:56;6.75;;;1.98;;
70322;SDS011;57735;56.264;43.898;2024-03-07T12:03:28;2.80;;;1.50;;
70322;SDS011;57735;56.264;43.898;2024-03-07T12:16:27;4.20;;;2.05;;
70322;SDS011;57735;56.264;43.898;2024-03-07T12:19:02;5.28;;;2.08;;
70322;SDS011;57735;56.264;43.898;2024-03-07T12:21:37;7.07;;;2.10;;
70322;SDS011;57735;56.264;43.898;2024-03-07T12:24:12;4.32;;;1.75;;
70322;SDS011;57735;56.264;43.898;2024-03-07T12:33:16;9.70;;;2.30;;
70322;SDS011;57735;56.264;43.898;2024-03-07T12:42:35;8.00;;;1.67;;
70322;SDS011;57735;56.264;43.898;2024-03-07T12:45:06;6.25;;;1.85;;
70322;SDS011;57735;56.264;43.898;2024-03-07T12:51:24;4.00;;;1.80;;
70322;SDS011;57735;56.264;43.898;2024-03-07T12:53:55;7.82;;;2.47;;
70322;SDS011;57735;56.264;43.898;2024-03-07T13:00:11;3.38;;;1.70;;
70322;SDS011;57735;56.264;43.898;2024-03-07T13:02:49;4.88;;;2.00;;
70322;SDS011;57735;56.264;43.898;2024-03-07T13:05:20;9.93;;;2.72;;
70322;SDS011;57735;56.264;43.898;2024-03-07T13:11:40;6.70;;;1.73;;
70322;SDS011;57735;56.264;43.898;2024-03-07T13:14:18;4.32;;;1.65;;
70322;SDS011;57735;56.264;43.898;2024-03-07T13:20:35;4.72;;;2.00;;
70322;SDS011;57735;56.264;43.898;2024-03-07T13:23:07;7.85;;;1.38;;
70322;SDS011;57735;56.264;43.898;2024-03-07T13:32:34;6.00;;;1.52;;
70322;SDS011;57735;56.264;43.898;2024-03-07T13:35:05;5.50;;;1.70;;
70322;SDS011;57735;56.264;43.898;2024-03-07T13:41:27;5.25;;;1.45;;
70322;SDS011;57735;56.264;43.898;2024-03-07T13:43:58;5.78;;;1.90;;
70322;SDS011;57735;56.264;43.898;2024-03-07T13:50:16;11.20;;;2.30;;
70322;SDS011;57735;56.264;43.898;2024-03-07T13:52:50;7.03;;;2.30;;
70322;SDS011;57735;56.264;43.898;2024-03-07T14:03:08;3.80;;;1.73;;
70322;SDS011;57735;56.264;43.898;2024-03-07T14:33:01;12.73;;;1.80;;
70322;SDS011;57735;56.264;43.898;2024-03-07T14:42:41;6.07;;;1.73;;
70322;SDS011;57735;56.264;43.898;2024-03-07T14:45:21;12.43;;;1.73;;
70322;SDS011;57735;56.264;43.898;2024-03-07T14:51:39;17.63;;;2.47;;
70322;SDS011;57735;56.264;43.898;2024-03-07T14:54:10;4.28;;;1.55;;
70322;SDS011;57735;56.264;43.898;2024-03-07T15:00:27;11.52;;;1.88;;
70322;SDS011;57735;56.264;43.898;2024-03-07T15:02:59;8.52;;;2.25;;
70322;SDS011;57735;56.264;43.898;2024-03-07T15:05:34;8.35;;;2.13;;
70322;SDS011;57735;56.264;43.898;2024-03-07T15:08:05;10.30;;;2.35;;
70322;SDS011;57735;56.264;43.898;2024-03-07T15:10:37;4.07;;;1.83;;
70322;SDS011;57735;56.264;43.898;2024-03-07T15:13:12;5.18;;;1.85;;
70322;SDS011;57735;56.264;43.898;2024-03-07T15:23:06;15.30;;;2.38;;
70322;SDS011;57735;56.264;43.898;2024-03-07T15:25:37;5.78;;;2.25;;
70322;SDS011;57735;56.264;43.898;2024-03-07T15:28:08;7.18;;;2.95;;
70322;SDS011;57735;56.264;43.898;2024-03-07T15:30:38;12.10;;;1.83;;
70322;SDS011;57735;56.264;43.898;2024-03-07T15:33:12;6.30;;;2.35;;
70322;SDS011;57735;56.264;43.898;2024-03-07T15:42:48;6.93;;;1.70;;
70322;SDS011;57735;56.264;43.898;2024-03-07T15:45:23;8.60;;;1.73;;
70322;SDS011;57735;56.264;43.898;2024-03-07T15:51:41;7.03;;;1.27;;
70322;SDS011;57735;56.264;43.898;2024-03-07T15:54:14;14.40;;;2.35;;
70322;SDS011;57735;56.264;43.898;2024-03-07T16:00:33;6.05;;;2.20;;
70322;SDS011;57735;56.264;43.898;2024-03-07T16:03:10;16.98;;;2.50;;
70322;SDS011;57735;56.264;43.898;2024-03-07T16:12:31;13.38;;;2.63;;
70322;SDS011;57735;56.264;43.898;2024-03-07T16:15:03;6.68;;;2.75;;
70322;SDS011;57735;56.264;43.898;2024-03-07T16:21:21;7.60;;;2.70;;
70322;SDS011;57735;56.264;43.898;2024-03-07T16:23:52;9.98;;;2.67;;
70322;SDS011;57735;56.264;43.898;2024-03-07T16:30:27;14.90;;;3.33;;
70322;SDS011;57735;56.264;43.898;2024-03-07T16:33:02;10.05;;;2.60;;
70322;SDS011;57735;56.264;43.898;2024-03-07T16:35:36;6.53;;;2.42;;
70322;SDS011;57735;56.264;43.898;2024-03-07T16:38:10;10.15;;;3.53;;
70322;SDS011;57735;56.264;43.898;2024-03-07T16:40:41;9.65;;;2.63;;
70322;SDS011;57735;56.264;43.898;2024-03-07T16:43:13;12.60;;;3.90;;
70322;SDS011;57735;56.264;43.898;2024-03-07T16:52:44;18.83;;;3.53;;
70322;SDS011;57735;56.264;43.898;2024-03-07T16:55:18;11.73;;;3.47;;
70322;SDS011;57735;56.264;43.898;2024-03-07T17:01:35;10.13;;;3.13;;
70322;SDS011;57735;56.264;43.898;2024-03-07T17:04:08;15.50;;;3.55;;
70322;SDS011;57735;56.264;43.898;2024-03-07T17:10:25;14.40;;;4.32;;
70322;SDS011;57735;56.264;43.898;2024-03-07T17:12:57;12.80;;;3.38;;
70322;SDS011;57735;56.264;43.898;2024-03-07T17:15:28;16.13;;;3.33;;
70322;SDS011;57735;56.264;43.898;2024-03-07T17:17:59;12.15;;;3.90;;
70322;SDS011;57735;56.264;43.898;2024-03-07T17:20:31;4.57;;;2.65;;
70322;SDS011;57735;56.264;43.898;2024-03-07T17:23:02;6.95;;;2.67;;
70322;SDS011;57735;56.264;43.898;2024-03-07T17:32:36;9.90;;;3.17;;
70322;SDS011;57735;56.264;43.898;2024-03-07T17:35:08;11.52;;;2.67;;
70322;SDS011;57735;56.264;43.898;2024-03-07T17:41:27;10.60;;;3.15;;
70322;SDS011;57735;56.264;43.898;2024-03-07T17:43:58;11.88;;;3.15;;
70322;SDS011;57735;56.264;43.898;2024-03-07T17:50:21;12.15;;;2.92;;
70322;SDS011;57735;56.264;43.898;2024-03-07T17:52:54;14.20;;;2.85;;
70322;SDS011;57735;56.264;43.898;2024-03-07T18:02:31;11.57;;;3.15;;
70322;SDS011;57735;56.264;43.898;2024-03-07T18:05:01;10.90;;;2.40;;
70322;SDS011;57735;56.264;43.898;2024-03-07T18:11:25;13.40;;;3.65;;
70322;SDS011;57735;56.264;43.898;2024-03-07T18:17:57;6.22;;;2.67;;